Time;durP1;ratioP1;P1;durP2;ratioP2;P2;SDS_P1;SDS_P2;PMS_P1;PMS_P2;Temp;Humidity;BMP_temperature;BMP_pressure;BME280_temperature;BME280_humidity;BME280_pressure;Samples;Min_cycle;Max_cycle;Signal;HPM_P1;HPM_P2
2022/07/23 00:01:27;;;;;;;8.85;5.57;;;21.60;88.80;;;;;;4990677;28;20030;-66
2022/07/23 00:03:54;;;;;;;6.88;4.45;;;21.60;88.50;;;;;;4992554;28;20041;-66
2022/07/23 00:06:20;;;;;;;7.25;5.30;;;21.50;88.60;;;;;;4991710;28;20038;-67
2022/07/23 00:08:45;;;;;;;6.10;4.90;;;21.50;88.60;;;;;;4991122;28;20037;-67
2022/07/23 00:11:11;;;;;;;6.32;4.50;;;21.50;88.40;;;;;;4993766;28;20109;-66
2022/07/23 00:13:37;;;;;;;5.68;5.15;;;21.40;88.00;;;;;;4990770;28;20177;-67
2022/07/23 00:16:02;;;;;;;6.35;5.25;;;21.40;88.10;;;;;;4993649;28;20465;-67
2022/07/23 00:18:28;;;;;;;7.32;4.68;;;21.30;87.90;;;;;;4990198;28;20026;-66
2022/07/23 00:20:54;;;;;;;8.10;5.43;;;21.30;88.20;;;;;;4993350;28;20026;-66
2022/07/23 00:23:19;;;;;;;6.88;4.70;;;21.30;88.30;;;;;;4992599;28;20156;-67
2022/07/23 00:25:45;;;;;;;8.20;4.95;;;21.30;88.20;;;;;;4990865;28;20038;-67
2022/07/23 00:28:11;;;;;;;6.40;4.50;;;21.30;88.20;;;;;;4992226;28;20053;-67
2022/07/23 00:30:36;;;;;;;7.80;4.95;;;21.30;88.30;;;;;;4991857;28;20037;-67
2022/07/23 00:33:07;;;;;;;6.68;4.75;;;21.30;88.30;;;;;;4991655;28;20030;-67
2022/07/23 00:35:35;;;;;;;8.45;4.90;;;21.20;88.40;;;;;;4990724;28;20038;-66
2022/07/23 00:38:02;;;;;;;7.25;5.40;;;21.30;88.50;;;;;;4992326;28;20370;-66
2022/07/23 00:40:28;;;;;;;6.13;4.85;;;21.30;88.60;;;;;;4992034;28;20073;-66
2022/07/23 00:42:54;;;;;;;7.03;5.15;;;21.30;88.50;;;;;;4988721;28;20097;-66
2022/07/23 00:45:20;;;;;;;6.35;4.78;;;21.30;88.50;;;;;;4983890;28;20470;-66
2022/07/23 00:47:46;;;;;;;7.63;5.20;;;21.30;88.50;;;;;;4991746;28;20520;-66
2022/07/23 00:50:12;;;;;;;7.07;4.60;;;21.20;88.40;;;;;;4992938;28;20022;-66
2022/07/23 00:52:38;;;;;;;9.30;5.40;;;21.30;88.50;;;;;;4990204;28;20057;-67
2022/07/23 00:55:06;;;;;;;10.45;5.07;;;21.20;88.60;;;;;;4991179;28;20049;-67
2022/07/23 00:57:32;;;;;;;7.50;4.43;;;21.20;88.50;;;;;;4991838;28;20373;-67
2022/07/23 00:59:57;;;;;;;6.70;4.65;;;21.20;88.60;;;;;;4974233;28;20052;-66
2022/07/23 01:02:24;;;;;;;9.35;5.25;;;21.20;88.80;;;;;;4991118;28;20041;-65
2022/07/23 01:04:50;;;;;;;6.10;4.70;;;21.10;88.60;;;;;;4991202;28;20394;-65
2022/07/23 01:07:18;;;;;;;7.32;5.10;;;21.10;88.50;;;;;;4989661;28;20042;-65
2022/07/23 01:09:44;;;;;;;8.27;5.25;;;21.10;88.50;;;;;;4974642;28;20026;-65
2022/07/23 01:12:10;;;;;;;5.80;5.15;;;21.10;88.50;;;;;;4990716;28;20068;-65
2022/07/23 01:14:35;;;;;;;6.88;5.47;;;21.00;88.40;;;;;;4990898;28;20049;-65
2022/07/23 01:17:01;;;;;;;6.85;5.22;;;21.00;88.70;;;;;;4990729;28;20085;-65
2022/07/23 01:19:27;;;;;;;8.57;4.63;;;20.90;89.00;;;;;;4992055;28;20409;-65
2022/07/23 01:21:54;;;;;;;8.98;5.05;;;20.90;89.20;;;;;;4990758;28;20109;-65
2022/07/23 01:24:20;;;;;;;10.50;5.22;;;20.90;89.20;;;;;;4990939;28;20035;-66
2022/07/23 01:26:47;;;;;;;8.07;4.88;;;20.90;89.20;;;;;;4991453;28;20057;-65
2022/07/23 01:29:13;;;;;;;7.13;4.82;;;20.90;89.30;;;;;;4972127;28;20101;-65
2022/07/23 01:31:39;;;;;;;7.22;5.60;;;20.80;89.30;;;;;;4988188;28;20022;-66
2022/07/23 01:34:06;;;;;;;6.72;5.22;;;20.80;89.40;;;;;;4991773;28;20057;-66
2022/07/23 01:36:33;;;;;;;6.30;4.85;;;20.80;89.40;;;;;;4988430;28;20027;-66
2022/07/23 01:38:58;;;;;;;7.80;5.10;;;20.80;89.50;;;;;;4992228;28;20496;-66
2022/07/23 01:41:24;;;;;;;9.15;5.22;;;20.80;89.70;;;;;;4989629;28;20038;-66
2022/07/23 01:43:50;;;;;;;7.95;5.60;;;20.80;89.70;;;;;;4992467;28;20524;-66
2022/07/23 01:46:15;;;;;;;6.47;5.28;;;20.80;89.80;;;;;;4989139;28;20027;-66
2022/07/23 01:48:41;;;;;;;9.93;6.10;;;20.70;89.90;;;;;;4990130;28;20030;-66
2022/07/23 01:51:07;;;;;;;8.00;5.63;;;20.70;89.90;;;;;;4990201;28;20154;-66
2022/07/23 01:53:33;;;;;;;8.88;5.25;;;20.70;90.00;;;;;;4990037;28;20073;-66
2022/07/23 01:55:59;;;;;;;5.97;5.35;;;20.60;90.10;;;;;;4991025;28;20030;-66
2022/07/23 01:58:26;;;;;;;7.70;4.88;;;20.60;90.10;;;;;;4972652;28;20039;-66
2022/07/23 02:00:53;;;;;;;6.10;5.47;;;20.60;90.20;;;;;;4983984;28;20174;-66
2022/07/23 02:03:19;;;;;;;6.88;5.60;;;20.60;90.30;;;;;;4991549;28;20497;-66
2022/07/23 02:05:44;;;;;;;6.88;5.55;;;20.60;90.40;;;;;;4989905;28;20031;-66
2022/07/23 02:08:10;;;;;;;8.02;5.78;;;20.60;90.40;;;;;;4991359;28;20137;-66
2022/07/23 02:10:35;;;;;;;10.32;5.50;;;20.60;90.50;;;;;;4981182;28;20473;-66
2022/07/23 02:13:01;;;;;;;7.22;5.15;;;20.50;90.50;;;;;;4990796;28;20030;-66
2022/07/23 02:15:28;;;;;;;7.45;5.20;;;20.50;90.60;;;;;;4994793;28;20029;-66
2022/07/23 02:17:54;;;;;;;7.63;5.38;;;20.60;90.60;;;;;;4992919;28;20030;-66
2022/07/23 02:20:19;;;;;;;6.97;4.70;;;20.50;90.60;;;;;;4995040;28;20026;-66
2022/07/23 02:22:45;;;;;;;7.30;5.85;;;20.50;90.60;;;;;;4992466;28;20486;-66
2022/07/23 02:25:11;;;;;;;10.68;5.90;;;20.50;90.60;;;;;;4996067;28;20494;-66
2022/07/23 02:27:37;;;;;;;7.18;5.60;;;20.50;90.50;;;;;;4992898;28;20057;-66
2022/07/23 02:30:04;;;;;;;9.07;5.55;;;20.50;90.40;;;;;;4995532;28;20030;-66
2022/07/23 02:32:29;;;;;;;8.60;5.30;;;20.50;90.30;;;;;;4992511;28;20026;-66
2022/07/23 02:34:55;;;;;;;8.55;5.95;;;20.50;90.40;;;;;;4994184;28;20054;-65
2022/07/23 02:37:21;;;;;;;7.50;5.10;;;20.40;90.30;;;;;;4992544;28;20501;-65
2022/07/23 02:39:48;;;;;;;5.40;4.63;;;20.30;90.40;;;;;;4995347;28;20397;-65
2022/07/23 02:42:14;;;;;;;8.75;5.18;;;20.30;90.40;;;;;;4992395;28;20030;-66
2022/07/23 02:44:39;;;;;;;7.13;5.45;;;20.30;90.50;;;;;;4972990;28;20379;-66
2022/07/23 02:47:05;;;;;;;7.63;4.93;;;20.20;90.50;;;;;;4993293;28;20034;-66
2022/07/23 02:49:31;;;;;;;8.25;5.40;;;20.20;90.50;;;;;;4992883;28;20030;-66
2022/07/23 02:51:56;;;;;;;8.68;5.60;;;20.20;90.50;;;;;;4994471;28;20050;-66
2022/07/23 02:54:22;;;;;;;6.65;5.60;;;20.20;90.50;;;;;;4994007;28;20018;-66
2022/07/23 02:56:47;;;;;;;12.02;5.57;;;20.20;90.60;;;;;;4994446;28;20482;-66
2022/07/23 02:59:13;;;;;;;7.05;5.40;;;20.10;90.70;;;;;;4993185;28;20069;-66
2022/07/23 03:01:38;;;;;;;7.72;5.22;;;20.10;90.70;;;;;;4994083;28;20046;-66
2022/07/23 03:04:04;;;;;;;9.95;5.85;;;20.10;90.70;;;;;;4995262;28;20026;-66
2022/07/23 03:06:30;;;;;;;6.88;5.50;;;20.00;90.70;;;;;;4991296;28;20038;-66
2022/07/23 03:08:55;;;;;;;13.18;5.45;;;19.90;90.80;;;;;;4995129;28;20113;-66
2022/07/23 03:11:21;;;;;;;7.65;5.03;;;19.90;90.90;;;;;;4993228;28;20345;-66
2022/07/23 03:13:46;;;;;;;7.85;5.22;;;19.80;90.90;;;;;;4994637;28;20042;-66
2022/07/23 03:16:12;;;;;;;8.90;5.65;;;19.80;91.00;;;;;;4993033;28;20031;-66
2022/07/23 03:18:37;;;;;;;8.38;5.68;;;19.70;91.00;;;;;;4977068;28;20105;-66
2022/07/23 03:21:03;;;;;;;8.00;5.32;;;19.60;91.20;;;;;;4991400;28;20776;-66
2022/07/23 03:23:29;;;;;;;7.60;4.85;;;19.60;91.30;;;;;;4994638;28;20025;-66
2022/07/23 03:25:55;;;;;;;8.57;5.68;;;19.60;91.40;;;;;;4991076;28;20089;-67
2022/07/23 03:28:20;;;;;;;6.45;4.97;;;19.60;91.50;;;;;;4992770;28;20401;-66
2022/07/23 03:30:48;;;;;;;9.25;5.75;;;19.60;91.60;;;;;;4992685;28;20473;-67
2022/07/23 03:33:14;;;;;;;8.93;5.00;;;19.50;91.70;;;;;;4969881;28;20505;-66
2022/07/23 03:35:39;;;;;;;11.57;6.03;;;19.50;91.70;;;;;;4991631;28;20092;-66
2022/07/23 03:38:05;;;;;;;8.48;5.43;;;19.40;91.80;;;;;;4993565;28;20042;-67
2022/07/23 03:40:31;;;;;;;7.38;4.95;;;19.40;91.80;;;;;;4992307;28;20026;-67
2022/07/23 03:42:56;;;;;;;7.65;4.82;;;19.40;91.90;;;;;;4993132;28;20031;-66
2022/07/23 03:45:22;;;;;;;6.60;5.15;;;19.40;92.00;;;;;;4986902;28;20037;-66
2022/07/23 03:47:47;;;;;;;11.90;5.03;;;19.30;91.90;;;;;;4992541;28;20164;-66
2022/07/23 03:50:13;;;;;;;8.00;4.85;;;19.20;91.80;;;;;;4986721;28;20124;-66
2022/07/23 03:52:39;;;;;;;8.23;4.28;;;19.20;91.80;;;;;;4992630;28;20076;-66
2022/07/23 03:55:05;;;;;;;9.15;4.90;;;19.20;91.80;;;;;;4993137;28;20045;-66
2022/07/23 03:57:30;;;;;;;6.85;4.90;;;19.20;91.80;;;;;;4974202;28;20041;-66
2022/07/23 03:59:56;;;;;;;6.70;4.82;;;19.10;91.90;;;;;;4990402;28;20093;-66
2022/07/23 04:02:22;;;;;;;6.10;4.10;;;19.10;91.90;;;;;;4992091;28;20077;-66
2022/07/23 04:04:47;;;;;;;6.07;4.10;;;19.10;91.90;;;;;;4989342;28;20073;-66
2022/07/23 04:07:14;;;;;;;8.00;4.50;;;19.10;91.80;;;;;;4990861;28;20430;-66
2022/07/23 04:09:40;;;;;;;8.18;4.03;;;19.10;91.70;;;;;;4991595;28;20069;-66
2022/07/23 04:12:06;;;;;;;8.77;3.90;;;19.20;91.70;;;;;;4975273;28;20057;-66
2022/07/23 04:14:33;;;;;;;6.63;3.92;;;19.20;91.60;;;;;;4991781;28;20085;-66
2022/07/23 04:16:59;;;;;;;4.93;3.30;;;19.10;91.60;;;;;;4989987;28;20057;-66
2022/07/23 04:19:25;;;;;;;7.05;3.60;;;19.10;91.50;;;;;;4992458;28;20062;-66
2022/07/23 04:21:51;;;;;;;7.20;3.50;;;19.10;91.50;;;;;;4992432;28;20077;-66
2022/07/23 04:24:16;;;;;;;6.45;3.47;;;19.10;91.40;;;;;;4991321;28;20052;-66
2022/07/23 04:26:42;;;;;;;7.78;3.33;;;19.10;91.30;;;;;;4991966;28;20108;-66
2022/07/23 04:29:07;;;;;;;5.55;3.10;;;19.10;91.40;;;;;;4991268;28;20085;-66
2022/07/23 04:31:33;;;;;;;6.20;3.40;;;19.10;91.30;;;;;;4990492;28;20532;-66
2022/07/23 04:33:58;;;;;;;7.32;3.63;;;19.00;91.20;;;;;;4991105;28;20510;-65
2022/07/23 04:36:24;;;;;;;7.40;3.10;;;18.90;91.10;;;;;;4991831;28;20374;-66
2022/07/23 04:38:49;;;;;;;6.32;3.38;;;19.00;91.10;;;;;;4992891;28;20169;-66
2022/07/23 04:41:15;;;;;;;6.45;2.88;;;18.90;91.20;;;;;;4991998;28;20287;-68
2022/07/23 04:43:40;;;;;;;5.22;3.30;;;18.90;91.40;;;;;;4991441;28;20034;-67
2022/07/23 04:46:06;;;;;;;6.65;3.13;;;18.90;91.50;;;;;;4990054;28;20035;-66
2022/07/23 04:48:31;;;;;;;5.63;3.22;;;18.80;92.10;;;;;;4973973;28;20038;-66
2022/07/23 04:50:57;;;;;;;6.72;3.33;;;18.90;92.00;;;;;;4991930;28;20088;-66
2022/07/23 04:53:23;;;;;;;5.53;3.40;;;18.80;92.10;;;;;;4992514;28;20474;-66
2022/07/23 04:55:49;;;;;;;7.78;3.17;;;18.80;92.20;;;;;;4972222;28;20062;-66
2022/07/23 04:58:15;;;;;;;6.47;3.55;;;18.70;92.30;;;;;;4988651;28;20474;-67
2022/07/23 05:00:40;;;;;;;6.50;3.70;;;18.70;92.60;;;;;;4984736;28;20034;-67
2022/07/23 05:03:06;;;;;;;9.75;3.20;;;18.70;93.10;;;;;;4992011;28;20041;-66
2022/07/23 05:05:32;;;;;;;6.63;3.22;;;18.70;93.20;;;;;;4990586;28;20061;-67
2022/07/23 05:07:57;;;;;;;6.40;3.25;;;18.60;93.10;;;;;;4991814;28;20034;-67
2022/07/23 05:10:23;;;;;;;7.95;3.28;;;18.50;93.50;;;;;;4992116;28;20033;-66
2022/07/23 05:12:48;;;;;;;8.43;3.35;;;18.40;93.60;;;;;;4990160;28;20027;-66
2022/07/23 05:15:14;;;;;;;6.63;3.45;;;18.30;93.60;;;;;;4990825;28;20050;-67
2022/07/23 05:17:39;;;;;;;6.68;3.85;;;18.20;94.00;;;;;;4987374;28;20053;-67
2022/07/23 05:20:05;;;;;;;7.35;3.38;;;18.20;94.30;;;;;;4973176;28;20023;-67
2022/07/23 05:22:31;;;;;;;6.10;3.55;;;18.20;94.40;;;;;;4984907;28;20084;-66
2022/07/23 05:24:56;;;;;;;7.18;3.85;;;18.10;94.50;;;;;;4991302;28;20018;-67
2022/07/23 05:27:22;;;;;;;6.50;3.30;;;18.20;94.70;;;;;;4990366;28;20042;-67
2022/07/23 05:29:47;;;;;;;6.47;3.90;;;18.10;94.60;;;;;;4991158;28;20389;-67
2022/07/23 05:32:13;;;;;;;5.68;3.28;;;18.10;94.80;;;;;;4987331;28;20027;-67
2022/07/23 05:34:38;;;;;;;5.20;2.92;;;18.00;95.00;;;;;;4992350;28;20482;-65
2022/07/23 05:37:05;;;;;;;4.22;3.20;;;18.00;94.90;;;;;;4991170;28;20030;-67
2022/07/23 05:39:30;;;;;;;7.43;3.20;;;17.90;95.10;;;;;;4991432;28;20080;-66
2022/07/23 05:41:56;;;;;;;4.72;3.63;;;17.90;95.20;;;;;;4991004;28;20026;-66
2022/07/23 05:44:22;;;;;;;5.80;3.53;;;17.90;95.30;;;;;;4992508;28;20023;-65
2022/07/23 05:46:47;;;;;;;5.88;3.25;;;17.90;95.60;;;;;;4991056;28;20065;-66
2022/07/23 05:49:13;;;;;;;5.80;3.00;;;17.90;95.80;;;;;;4993184;28;20046;-66
2022/07/23 05:51:38;;;;;;;5.78;3.50;;;18.00;96.00;;;;;;4994613;28;20046;-66
2022/07/23 05:54:04;;;;;;;5.32;3.88;;;18.00;95.80;;;;;;4996032;28;20050;-66
2022/07/23 05:56:29;;;;;;;6.22;3.35;;;18.00;96.00;;;;;;4995575;28;20066;-66
2022/07/23 05:58:55;;;;;;;5.63;3.20;;;18.00;96.20;;;;;;4995760;28;20553;-66
2022/07/23 06:01:20;;;;;;;6.20;3.80;;;18.10;96.40;;;;;;4994093;28;20029;-67
2022/07/23 06:03:46;;;;;;;7.32;3.90;;;18.10;96.60;;;;;;4994960;28;20034;-67
2022/07/23 06:06:11;;;;;;;5.50;3.53;;;18.20;96.80;;;;;;4993484;28;20141;-67
2022/07/23 06:08:37;;;;;;;8.82;3.72;;;18.20;96.80;;;;;;4995868;28;20038;-67
2022/07/23 06:11:02;;;;;;;6.40;3.72;;;18.20;96.70;;;;;;4992124;28;20030;-67
2022/07/23 06:13:28;;;;;;;10.25;4.32;;;18.20;96.80;;;;;;4995389;28;20034;-67
2022/07/23 06:15:54;;;;;;;9.02;4.13;;;18.20;96.60;;;;;;4994636;28;20026;-67
2022/07/23 06:18:19;;;;;;;6.32;3.45;;;18.20;96.70;;;;;;4995073;28;20485;-67
2022/07/23 06:20:45;;;;;;;6.70;4.13;;;18.20;96.70;;;;;;4993731;28;20045;-66
2022/07/23 06:23:12;;;;;;;6.38;3.78;;;18.20;96.90;;;;;;4996070;28;20601;-67
2022/07/23 06:25:38;;;;;;;7.38;3.90;;;18.20;97.00;;;;;;4994031;28;20085;-68
2022/07/23 06:28:04;;;;;;;6.95;3.88;;;18.20;97.20;;;;;;4995405;28;20047;-67
2022/07/23 06:30:29;;;;;;;8.50;3.90;;;18.20;97.40;;;;;;4993753;28;20026;-68
2022/07/23 06:32:55;;;;;;;6.65;4.10;;;18.30;97.70;;;;;;4992028;28;20102;-66
2022/07/23 06:35:21;;;;;;;9.00;4.60;;;18.40;97.90;;;;;;4994993;28;20072;-67
2022/07/23 06:37:47;;;;;;;5.63;3.92;;;18.40;98.00;;;;;;4994463;28;20045;-67
2022/07/23 06:40:12;;;;;;;10.13;4.15;;;18.40;98.00;;;;;;4977213;28;20018;-67
2022/07/23 06:42:39;;;;;;;8.15;4.13;;;18.40;97.90;;;;;;4991829;28;20097;-66
2022/07/23 06:45:06;;;;;;;8.13;3.50;;;18.40;97.80;;;;;;4995606;28;20052;-66
2022/07/23 06:47:31;;;;;;;7.13;4.38;;;18.40;98.00;;;;;;4993722;28;20093;-67
2022/07/23 06:49:57;;;;;;;6.28;4.10;;;18.40;98.20;;;;;;4976862;28;20054;-67
2022/07/23 06:52:22;;;;;;;6.75;4.60;;;18.40;98.20;;;;;;4992958;28;20030;-66
2022/07/23 06:54:49;;;;;;;5.72;4.13;;;18.50;98.10;;;;;;4995257;28;20073;-67
2022/07/23 06:57:14;;;;;;;5.97;4.25;;;18.50;98.00;;;;;;4994186;28;20023;-67
2022/07/23 06:59:40;;;;;;;8.07;4.43;;;18.60;98.30;;;;;;4993543;28;20053;-67
2022/07/23 07:02:06;;;;;;;9.02;4.25;;;18.60;98.40;;;;;;4974924;28;20026;-68
2022/07/23 07:04:32;;;;;;;7.05;4.30;;;18.70;98.50;;;;;;4993814;28;20050;-68
2022/07/23 07:06:58;;;;;;;5.55;4.30;;;18.80;98.70;;;;;;4992991;28;20038;-76
2022/07/23 07:09:23;;;;;;;8.25;4.90;;;18.80;98.60;;;;;;4990208;28;20027;-76
2022/07/23 07:11:50;;;;;;;8.50;4.40;;;18.80;98.50;;;;;;4988243;28;20057;-73
2022/07/23 07:14:16;;;;;;;11.73;5.68;;;18.80;98.60;;;;;;4994839;28;20039;-71
2022/07/23 07:16:41;;;;;;;8.45;4.95;;;18.90;98.70;;;;;;4996688;28;20157;-71
2022/07/23 07:19:07;;;;;;;6.43;4.60;;;18.90;98.70;;;;;;4993722;28;20031;-71
2022/07/23 07:21:32;;;;;;;8.35;4.25;;;19.00;98.80;;;;;;4993344;28;20026;-68
2022/07/23 07:23:58;;;;;;;5.88;3.92;;;19.00;98.70;;;;;;4989440;28;20042;-68
2022/07/23 07:26:23;;;;;;;11.55;5.85;;;19.10;98.90;;;;;;4993598;28;20084;-68
2022/07/23 07:28:49;;;;;;;15.88;10.18;;;19.10;99.00;;;;;;4991800;28;20125;-69
2022/07/23 07:31:15;;;;;;;15.27;11.30;;;19.20;98.80;;;;;;4992479;28;20533;-68
2022/07/23 07:33:40;;;;;;;17.92;11.75;;;19.10;98.70;;;;;;4991281;28;20073;-68
2022/07/23 07:36:06;;;;;;;15.00;9.45;;;19.20;98.90;;;;;;4993492;28;20026;-68
2022/07/23 07:38:32;;;;;;;12.73;7.93;;;19.30;98.70;;;;;;4989255;28;20077;-69
2022/07/23 07:40:57;;;;;;;10.15;7.00;;;19.30;98.70;;;;;;4991331;28;20412;-69
2022/07/23 07:43:23;;;;;;;11.77;8.07;;;19.30;98.70;;;;;;4994247;28;20039;-69
2022/07/23 07:45:49;;;;;;;13.93;7.93;;;19.40;98.60;;;;;;4987632;28;20030;-68
2022/07/23 07:48:14;;;;;;;13.18;8.90;;;19.50;98.60;;;;;;4994092;28;20037;-68
2022/07/23 07:50:40;;;;;;;13.57;9.38;;;19.50;98.10;;;;;;4991148;28;20105;-68
2022/07/23 07:53:05;;;;;;;13.52;9.50;;;19.60;97.90;;;;;;4994210;28;20058;-68
2022/07/23 07:55:31;;;;;;;13.60;9.45;;;19.50;97.90;;;;;;4992760;28;20113;-68
2022/07/23 07:57:57;;;;;;;17.58;10.40;;;19.50;97.80;;;;;;4975943;28;20181;-68
2022/07/23 08:00:23;;;;;;;12.05;8.93;;;19.50;97.80;;;;;;4992951;28;20152;-68
2022/07/23 08:02:53;;;;;;;13.48;9.00;;;19.50;97.80;;;;;;4989860;28;20122;-69
2022/07/23 08:05:23;;;;;;;15.07;8.85;;;19.50;97.60;;;;;;4993654;28;20378;-69
2022/07/23 08:07:49;;;;;;;17.13;9.18;;;19.60;97.70;;;;;;4970899;28;20034;-68
2022/07/23 08:10:15;;;;;;;11.93;7.40;;;19.60;98.00;;;;;;4985854;28;20033;-68
2022/07/23 08:12:44;;;;;;;9.35;6.43;;;19.60;97.80;;;;;;4972546;28;20022;-69
2022/07/23 08:15:10;;;;;;;9.13;6.03;;;19.70;97.80;;;;;;4976028;28;20026;-69
2022/07/23 08:17:36;;;;;;;10.40;5.68;;;19.70;97.80;;;;;;4990253;28;20482;-69
2022/07/23 08:20:03;;;;;;;8.00;5.43;;;19.80;97.90;;;;;;4993261;28;20031;-68
2022/07/23 08:22:58;;;;;;;6.82;4.78;;;19.90;97.90;;;;;;4983993;28;20026;-68
2022/07/23 08:25:30;;;;;;;8.82;5.07;;;20.10;97.80;;;;;;4993553;28;20046;-68
2022/07/23 08:27:58;;;;;;;8.13;4.88;;;20.10;97.60;;;;;;5001230;28;20054;-67
2022/07/23 08:30:24;;;;;;;7.68;5.30;;;20.10;97.50;;;;;;4992116;28;20105;-66
2022/07/23 08:32:51;;;;;;;5.82;4.85;;;20.10;97.10;;;;;;4991426;28;20121;-67
2022/07/23 08:35:21;;;;;;;9.27;5.28;;;20.10;96.70;;;;;;4993060;28;20041;-67
2022/07/23 08:37:47;;;;;;;8.23;4.93;;;20.10;96.60;;;;;;4991061;28;20034;-67
2022/07/23 08:40:13;;;;;;;6.68;4.65;;;20.00;96.80;;;;;;4992754;28;20030;-66
2022/07/23 08:42:38;;;;;;;8.70;5.10;;;20.10;96.70;;;;;;4991448;28;20030;-68
2022/07/23 08:45:07;;;;;;;9.93;5.30;;;20.10;97.20;;;;;;4990868;28;20026;-67
2022/07/23 08:47:34;;;;;;;7.70;4.35;;;20.20;97.20;;;;;;4990412;28;20050;-68
2022/07/23 08:50:00;;;;;;;8.95;4.78;;;20.30;96.80;;;;;;4992089;28;20121;-69
2022/07/23 08:52:26;;;;;;;9.02;4.82;;;20.40;96.40;;;;;;4992265;28;20429;-68
2022/07/23 08:54:53;;;;;;;7.20;3.92;;;20.40;96.40;;;;;;4992878;28;20026;-68
2022/07/23 08:57:19;;;;;;;6.72;3.55;;;20.50;96.50;;;;;;4987717;28;20058;-68
2022/07/23 08:59:44;;;;;;;9.55;4.22;;;20.60;95.80;;;;;;4992194;28;20486;-68
2022/07/23 09:02:10;;;;;;;6.25;3.53;;;20.50;95.70;;;;;;4991605;28;20030;-67
2022/07/23 09:04:39;;;;;;;8.20;4.10;;;20.60;95.80;;;;;;4991960;28;20069;-68
2022/07/23 09:07:05;;;;;;;8.10;3.58;;;20.70;96.00;;;;;;4990103;28;20514;-67
2022/07/23 09:09:31;;;;;;;6.40;3.83;;;20.80;96.10;;;;;;4988110;28;20129;-67
2022/07/23 09:12:07;;;;;;;7.90;3.42;;;20.90;95.80;;;;;;4991748;28;20485;-68
2022/07/23 09:14:46;;;;;;;6.20;3.78;;;20.90;95.30;;;;;;4974098;28;20057;-67
2022/07/23 09:17:14;;;;;;;6.60;3.80;;;21.00;94.80;;;;;;4988982;28;20044;-67
2022/07/23 09:19:41;;;;;;;11.10;4.05;;;21.00;94.70;;;;;;4992362;28;20018;-67
2022/07/23 09:22:17;;;;;;;4.60;3.40;;;21.10;94.20;;;;;;4991222;28;20034;-69
2022/07/23 09:25:31;;;;;;;7.03;4.18;;;21.10;94.60;;;;;;4991480;28;20018;-68
2022/07/23 09:28:02;;;;;;;7.35;3.95;;;21.10;94.20;;;;;;4976384;28;20042;-67
2022/07/23 09:30:29;;;;;;;11.38;4.60;;;21.20;93.80;;;;;;4991119;28;20054;-68
2022/07/23 09:33:07;;;;;;;7.28;3.90;;;21.20;94.20;;;;;;4989773;28;20030;-67
2022/07/23 09:35:45;;;;;;;5.22;3.30;;;21.20;94.00;;;;;;4989103;28;20034;-68
2022/07/23 09:38:11;;;;;;;6.95;3.67;;;21.30;93.90;;;;;;4989541;28;20097;-69
2022/07/23 09:40:37;;;;;;;7.40;3.60;;;21.30;93.90;;;;;;4990216;28;20095;-68
2022/07/23 09:43:02;;;;;;;6.68;3.45;;;21.30;93.60;;;;;;4992448;28;20126;-68
2022/07/23 09:45:28;;;;;;;6.72;3.20;;;21.40;93.40;;;;;;4991049;28;20469;-67
2022/07/23 09:48:16;;;;;;;7.65;3.75;;;21.40;93.70;;;;;;4990093;28;20148;-67
2022/07/23 09:50:44;;;;;;;6.53;3.15;;;21.50;92.80;;;;;;4991109;28;20382;-67
2022/07/23 09:53:25;;;;;;;6.22;4.07;;;21.50;93.10;;;;;;4991405;28;20038;-68
2022/07/23 09:55:54;;;;;;;5.97;3.92;;;21.70;92.80;;;;;;4990493;28;20031;-67
2022/07/23 09:58:21;;;;;;;7.32;4.05;;;21.70;92.40;;;;;;4989437;28;20057;-69
2022/07/23 10:00:49;;;;;;;6.60;3.72;;;21.70;91.80;;;;;;4989963;28;20033;-70
2022/07/23 10:03:15;;;;;;;6.60;4.20;;;21.70;91.60;;;;;;4991780;28;20058;-69
2022/07/23 10:05:43;;;;;;;6.60;3.90;;;21.80;91.60;;;;;;4990367;28;20050;-69
2022/07/23 10:08:11;;;;;;;6.47;3.63;;;22.00;92.00;;;;;;4990005;28;20042;-67
2022/07/23 10:10:39;;;;;;;6.15;3.60;;;22.20;92.40;;;;;;4972134;28;20121;-68
2022/07/23 10:15:50;;;;;;;8.38;4.32;;;22.50;91.50;;;;;;4989276;28;20624;-68
2022/07/23 10:18:16;;;;;;;10.32;5.10;;;22.60;91.30;;;;;;4988725;28;20026;-68
2022/07/23 10:20:43;;;;;;;5.85;4.07;;;22.60;91.20;;;;;;4989532;28;20045;-68
2022/07/23 10:23:30;;;;;;;10.57;3.65;;;22.70;90.20;;;;;;4973726;28;20026;-68
2022/07/23 10:26:20;;;;;;;5.18;3.75;;;22.70;89.80;;;;;;4990456;28;20049;-68
2022/07/23 10:29:10;;;;;;;9.02;4.03;;;22.70;90.10;;;;;;4989351;28;20038;-67
2022/07/23 10:32:08;;;;;;;7.15;3.75;;;22.80;89.90;;;;;;4982770;28;20030;-68
2022/07/23 10:34:58;;;;;;;6.97;3.63;;;22.80;89.70;;;;;;4987505;28;20108;-68
2022/07/23 10:37:28;;;;;;;6.78;3.17;;;23.00;90.00;;;;;;4991714;28;20034;-69
2022/07/23 10:40:20;;;;;;;5.45;3.47;;;23.10;88.90;;;;;;4994118;28;20023;-69
2022/07/23 10:42:46;;;;;;;4.93;3.30;;;23.10;88.20;;;;;;4994151;28;20404;-68
2022/07/23 10:45:24;;;;;;;6.28;3.47;;;23.10;87.40;;;;;;4995602;28;20018;-69
2022/07/23 10:47:53;;;;;;;4.30;2.88;;;23.10;88.50;;;;;;4991581;28;20089;-67
2022/07/23 10:50:34;;;;;;;3.72;3.13;;;23.20;88.50;;;;;;4994636;28;20038;-68
2022/07/23 10:53:06;;;;;;;6.88;3.53;;;23.30;88.00;;;;;;4995123;28;20036;-68
2022/07/23 10:55:32;;;;;;;5.80;3.80;;;23.40;88.80;;;;;;4994515;28;20050;-68
2022/07/23 10:57:58;;;;;;;4.53;2.97;;;23.50;87.70;;;;;;4993604;28;20424;-69
2022/07/23 11:00:25;;;;;;;5.20;3.00;;;23.60;87.90;;;;;;4995008;28;20429;-68
2022/07/23 11:02:53;;;;;;;4.50;2.55;;;23.70;87.60;;;;;;4993479;28;20045;-68
2022/07/23 11:05:39;;;;;;;5.85;3.17;;;23.80;87.20;;;;;;4977528;28;20477;-68
2022/07/23 11:08:04;;;;;;;6.88;3.72;;;23.80;86.00;;;;;;4990061;28;20556;-68
2022/07/23 11:10:35;;;;;;;7.30;3.30;;;23.80;86.20;;;;;;4994777;28;20026;-68
2022/07/23 11:13:26;;;;;;;5.18;3.30;;;23.80;86.20;;;;;;4994409;28;20041;-68
2022/07/23 11:16:01;;;;;;;7.28;3.50;;;24.00;86.90;;;;;;4993722;28;20050;-69
2022/07/23 11:18:46;;;;;;;7.68;3.65;;;24.00;86.00;;;;;;4993366;28;20096;-68
2022/07/23 11:21:26;;;;;;;8.00;3.67;;;23.90;85.40;;;;;;4993541;28;20065;-68
2022/07/23 11:24:08;;;;;;;7.05;3.88;;;23.90;85.20;;;;;;4994620;28;20425;-68
2022/07/23 11:26:48;;;;;;;6.50;3.72;;;24.00;85.30;;;;;;4993499;28;20030;-68
2022/07/23 11:29:26;;;;;;;5.40;3.75;;;24.10;83.90;;;;;;4975150;28;20405;-68
2022/07/23 11:32:05;;;;;;;7.28;4.10;;;24.00;84.00;;;;;;4995757;28;20030;-69
2022/07/23 11:34:40;;;;;;;7.20;3.30;;;24.10;84.70;;;;;;4976478;28;20540;-69
2022/07/23 11:37:08;;;;;;;5.65;3.40;;;24.20;84.00;;;;;;4992382;28;20069;-68
2022/07/23 11:39:35;;;;;;;6.47;3.75;;;24.20;83.10;;;;;;4993430;28;20033;-68
2022/07/23 11:42:04;;;;;;;6.40;3.33;;;24.20;82.60;;;;;;4993405;28;20393;-69
2022/07/23 11:44:37;;;;;;;6.47;3.40;;;24.30;82.60;;;;;;4994108;28;20064;-68
2022/07/23 11:47:09;;;;;;;5.68;3.28;;;24.30;81.40;;;;;;4990601;28;20492;-69
2022/07/23 11:49:35;;;;;;;6.68;3.80;;;24.40;82.00;;;;;;4994033;28;20069;-69
2022/07/23 11:52:10;;;;;;;4.40;3.15;;;24.40;79.90;;;;;;4993795;28;20026;-69
2022/07/23 11:54:57;;;;;;;6.28;3.63;;;24.40;80.90;;;;;;4993119;28;20038;-69
2022/07/23 11:57:38;;;;;;;7.97;4.45;;;24.40;80.40;;;;;;4992487;28;20417;-70
2022/07/23 12:00:10;;;;;;;6.50;4.13;;;24.40;81.20;;;;;;4994325;28;20030;-68
2022/07/23 12:02:37;;;;;;;7.32;3.50;;;24.50;81.20;;;;;;4992985;28;20117;-69
2022/07/23 12:05:04;;;;;;;7.47;3.53;;;24.70;80.40;;;;;;4994006;28;20468;-69
2022/07/23 12:07:35;;;;;;;7.63;4.40;;;24.80;80.40;;;;;;4991397;28;20069;-69
2022/07/23 12:10:10;;;;;;;7.15;3.75;;;25.00;80.10;;;;;;4992608;28;20038;-69
2022/07/23 12:12:41;;;;;;;7.15;3.20;;;25.10;79.70;;;;;;4993164;28;20081;-69
2022/07/23 12:15:09;;;;;;;7.30;3.70;;;25.20;78.30;;;;;;4992935;28;20093;-69
2022/07/23 12:17:37;;;;;;;8.70;4.20;;;25.20;79.60;;;;;;4974604;28;20536;-69
2022/07/23 12:20:09;;;;;;;5.88;4.00;;;25.30;79.30;;;;;;4993126;28;20092;-69
2022/07/23 12:22:38;;;;;;;6.40;3.55;;;25.40;78.20;;;;;;4991460;28;20110;-69
2022/07/23 12:25:15;;;;;;;6.82;3.78;;;25.50;77.70;;;;;;4992575;28;20034;-68
2022/07/23 12:27:42;;;;;;;6.35;3.30;;;25.50;77.70;;;;;;4995828;28;20505;-69
2022/07/23 12:30:19;;;;;;;5.88;3.10;;;25.50;77.10;;;;;;4992393;28;20023;-69
2022/07/23 12:32:50;;;;;;;3.88;3.10;;;25.50;77.30;;;;;;4992092;28;20121;-68
2022/07/23 12:35:16;;;;;;;5.40;3.22;;;25.50;76.40;;;;;;4991403;28;20490;-70
2022/07/23 12:37:45;;;;;;;6.82;3.25;;;25.50;76.40;;;;;;4985925;28;20061;-69
2022/07/23 12:40:27;;;;;;;5.30;3.35;;;25.50;76.60;;;;;;4992821;28;20026;-69
2022/07/23 12:42:57;;;;;;;8.18;3.53;;;25.50;76.70;;;;;;4991694;28;20520;-68
2022/07/23 12:45:24;;;;;;;4.80;3.58;;;25.50;76.60;;;;;;4973617;28;20028;-68
2022/07/23 12:47:59;;;;;;;5.85;2.88;;;25.60;76.00;;;;;;4990991;28;20429;-68
2022/07/23 12:50:43;;;;;;;5.45;3.35;;;25.60;76.10;;;;;;4992704;28;20477;-68
2022/07/23 12:53:14;;;;;;;4.80;3.10;;;25.70;75.80;;;;;;4975758;28;20481;-69